Forside
METAR-TAF:

METAR-TAF

Lufthavne :

Goshen Municipal Airport

Goshen, Indiana, USA

Breddekreds: 41-31-34N, længdekreds: 085-47-12W, højde: 252 m

Aktuelle vejr

Denne rapport blev lavet for 58 minutter siden, kl. 11:53 UTC
Vind 4 kt fra nordnordøst
Temperatur 2°C
Fugtighed 87%
Tryk 1017 hPa
Sigt: 16.1 km
Overskyet i en højde af 6000 ft

METAR: KGSH 311153Z AUTO 02004KT 10SM OVC060 02/00 A3003 RMK AO2 SLP175 T00220000 10022 20017 55006

Tid: 08:51 (12:51 UTC)


TAF: fraværende

Vejrobservationer og prognoser fra mere end 4000 lufthavne (METAR og TAF).

De gule og røde prikker repræsenterer de meteorologiske stationer.

Flyt musen over at se navnet på stationen.

Så klik over at se vejr observationer og prognoser.

At skifte det kort: Klik på de grønne knapper med et sort kors for at zoome ind; på den grønne knap med en bindestreg for at zoome ud; eller på de grønne pile for tilstødende kort.


METAR-TAF: